sensor_id;sensor_type;location;lat;lon;timestamp;P1;durP1;ratioP1;P2;durP2;ratioP2
63201;SDS011;49296;48.188;11.566;2023-02-22T00:00:41;17.35;;;9.50;;
63201;SDS011;49296;48.188;11.566;2023-02-22T00:03:09;18.20;;;10.27;;
63201;SDS011;49296;48.188;11.566;2023-02-22T00:05:40;17.35;;;9.05;;
63201;SDS011;49296;48.188;11.566;2023-02-22T00:08:11;15.25;;;8.85;;
63201;SDS011;49296;48.188;11.566;2023-02-22T00:10:38;18.13;;;9.63;;
63201;SDS011;49296;48.188;11.566;2023-02-22T00:13:06;17.92;;;9.07;;
63201;SDS011;49296;48.188;11.566;2023-02-22T00:15:33;17.45;;;10.25;;
63201;SDS011;49296;48.188;11.566;2023-02-22T00:18:02;16.38;;;9.63;;
63201;SDS011;49296;48.188;11.566;2023-02-22T00:20:29;15.48;;;9.55;;
63201;SDS011;49296;48.188;11.566;2023-02-22T00:22:57;17.23;;;10.45;;
63201;SDS011;49296;48.188;11.566;2023-02-22T00:25:25;14.43;;;9.38;;
63201;SDS011;49296;48.188;11.566;2023-02-22T00:27:52;16.58;;;9.30;;
63201;SDS011;49296;48.188;11.566;2023-02-22T00:30:20;15.85;;;9.60;;
63201;SDS011;49296;48.188;11.566;2023-02-22T00:32:51;17.25;;;9.32;;
63201;SDS011;49296;48.188;11.566;2023-02-22T00:35:19;14.85;;;9.93;;
63201;SDS011;49296;48.188;11.566;2023-02-22T00:37:47;16.10;;;9.93;;
63201;SDS011;49296;48.188;11.566;2023-02-22T00:40:16;19.83;;;10.52;;
63201;SDS011;49296;48.188;11.566;2023-02-22T00:42:44;21.63;;;9.93;;
63201;SDS011;49296;48.188;11.566;2023-02-22T00:45:12;16.95;;;9.65;;
63201;SDS011;49296;48.188;11.566;2023-02-22T00:47:39;19.25;;;10.63;;
63201;SDS011;49296;48.188;11.566;2023-02-22T00:50:06;15.70;;;9.77;;
63201;SDS011;49296;48.188;11.566;2023-02-22T00:52:35;17.85;;;10.18;;
63201;SDS011;49296;48.188;11.566;2023-02-22T00:55:02;18.92;;;8.98;;
63201;SDS011;49296;48.188;11.566;2023-02-22T00:57:31;21.52;;;10.02;;
63201;SDS011;49296;48.188;11.566;2023-02-22T00:59:59;13.02;;;8.38;;
63201;SDS011;49296;48.188;11.566;2023-02-22T01:02:36;18.95;;;9.95;;
63201;SDS011;49296;48.188;11.566;2023-02-22T01:05:02;18.23;;;8.95;;
63201;SDS011;49296;48.188;11.566;2023-02-22T01:07:29;15.07;;;8.63;;
63201;SDS011;49296;48.188;11.566;2023-02-22T01:09:56;15.43;;;8.90;;
63201;SDS011;49296;48.188;11.566;2023-02-22T01:12:22;14.93;;;8.65;;
63201;SDS011;49296;48.188;11.566;2023-02-22T01:14:50;16.02;;;9.48;;
63201;SDS011;49296;48.188;11.566;2023-02-22T01:17:20;15.70;;;8.48;;
63201;SDS011;49296;48.188;11.566;2023-02-22T01:19:47;16.42;;;9.82;;
63201;SDS011;49296;48.188;11.566;2023-02-22T01:22:14;15.45;;;8.70;;
63201;SDS011;49296;48.188;11.566;2023-02-22T01:24:41;19.02;;;8.80;;
63201;SDS011;49296;48.188;11.566;2023-02-22T01:27:08;18.08;;;8.40;;
63201;SDS011;49296;48.188;11.566;2023-02-22T01:29:35;15.55;;;8.30;;
63201;SDS011;49296;48.188;11.566;2023-02-22T01:32:04;13.60;;;7.85;;
63201;SDS011;49296;48.188;11.566;2023-02-22T01:34:31;16.65;;;7.80;;
63201;SDS011;49296;48.188;11.566;2023-02-22T01:36:58;14.60;;;8.30;;
63201;SDS011;49296;48.188;11.566;2023-02-22T01:39:25;12.80;;;7.10;;
63201;SDS011;49296;48.188;11.566;2023-02-22T01:41:52;12.65;;;7.82;;
63201;SDS011;49296;48.188;11.566;2023-02-22T01:44:20;13.95;;;8.50;;
63201;SDS011;49296;48.188;11.566;2023-02-22T01:46:52;12.85;;;7.60;;
63201;SDS011;49296;48.188;11.566;2023-02-22T01:49:22;11.63;;;6.93;;
63201;SDS011;49296;48.188;11.566;2023-02-22T01:51:50;13.88;;;7.25;;
63201;SDS011;49296;48.188;11.566;2023-02-22T01:54:20;12.10;;;6.82;;
63201;SDS011;49296;48.188;11.566;2023-02-22T01:56:53;11.13;;;7.03;;
63201;SDS011;49296;48.188;11.566;2023-02-22T01:59:25;11.55;;;6.32;;
63201;SDS011;49296;48.188;11.566;2023-02-22T02:01:57;10.85;;;5.85;;
63201;SDS011;49296;48.188;11.566;2023-02-22T02:04:25;12.32;;;6.95;;
63201;SDS011;49296;48.188;11.566;2023-02-22T02:06:53;9.82;;;5.78;;
63201;SDS011;49296;48.188;11.566;2023-02-22T02:09:26;8.35;;;5.60;;
63201;SDS011;49296;48.188;11.566;2023-02-22T02:11:57;9.18;;;5.68;;
63201;SDS011;49296;48.188;11.566;2023-02-22T02:14:26;10.05;;;4.65;;
63201;SDS011;49296;48.188;11.566;2023-02-22T02:16:56;9.20;;;5.38;;
63201;SDS011;49296;48.188;11.566;2023-02-22T02:19:28;8.02;;;4.97;;
63201;SDS011;49296;48.188;11.566;2023-02-22T02:22:09;7.90;;;4.90;;
63201;SDS011;49296;48.188;11.566;2023-02-22T02:24:56;8.68;;;6.10;;
63201;SDS011;49296;48.188;11.566;2023-02-22T02:27:48;9.70;;;5.53;;
63201;SDS011;49296;48.188;11.566;2023-02-22T02:30:36;8.65;;;5.22;;
63201;SDS011;49296;48.188;11.566;2023-02-22T02:33:15;9.40;;;5.45;;
63201;SDS011;49296;48.188;11.566;2023-02-22T02:35:53;8.85;;;4.97;;
63201;SDS011;49296;48.188;11.566;2023-02-22T02:38:29;10.48;;;5.50;;
63201;SDS011;49296;48.188;11.566;2023-02-22T02:41:02;9.15;;;5.25;;
63201;SDS011;49296;48.188;11.566;2023-02-22T02:43:33;11.38;;;5.40;;
63201;SDS011;49296;48.188;11.566;2023-02-22T02:46:07;10.07;;;4.72;;
63201;SDS011;49296;48.188;11.566;2023-02-22T02:48:37;8.25;;;4.57;;
63201;SDS011;49296;48.188;11.566;2023-02-22T02:51:09;10.38;;;5.10;;
63201;SDS011;49296;48.188;11.566;2023-02-22T02:53:39;9.80;;;5.22;;
63201;SDS011;49296;48.188;11.566;2023-02-22T02:56:09;8.50;;;4.80;;
63201;SDS011;49296;48.188;11.566;2023-02-22T02:58:42;7.63;;;4.72;;
63201;SDS011;49296;48.188;11.566;2023-02-22T03:01:13;9.70;;;5.30;;
63201;SDS011;49296;48.188;11.566;2023-02-22T03:03:56;9.20;;;5.07;;
63201;SDS011;49296;48.188;11.566;2023-02-22T03:06:47;9.30;;;5.35;;
63201;SDS011;49296;48.188;11.566;2023-02-22T03:09:43;9.68;;;5.20;;
63201;SDS011;49296;48.188;11.566;2023-02-22T03:12:25;9.95;;;5.63;;
63201;SDS011;49296;48.188;11.566;2023-02-22T03:15:03;9.35;;;5.43;;
63201;SDS011;49296;48.188;11.566;2023-02-22T03:17:40;15.00;;;5.55;;
63201;SDS011;49296;48.188;11.566;2023-02-22T03:20:16;7.70;;;4.22;;
63201;SDS011;49296;48.188;11.566;2023-02-22T03:22:56;9.60;;;6.05;;
63201;SDS011;49296;48.188;11.566;2023-02-22T03:25:29;9.63;;;4.93;;
63201;SDS011;49296;48.188;11.566;2023-02-22T03:28:00;8.20;;;4.80;;
63201;SDS011;49296;48.188;11.566;2023-02-22T03:30:30;10.65;;;5.47;;
63201;SDS011;49296;48.188;11.566;2023-02-22T03:33:03;9.25;;;4.70;;
63201;SDS011;49296;48.188;11.566;2023-02-22T03:35:36;9.23;;;4.85;;
63201;SDS011;49296;48.188;11.566;2023-02-22T03:38:07;9.00;;;4.70;;
63201;SDS011;49296;48.188;11.566;2023-02-22T03:40:38;9.48;;;4.90;;
63201;SDS011;49296;48.188;11.566;2023-02-22T03:43:09;8.35;;;4.70;;
63201;SDS011;49296;48.188;11.566;2023-02-22T03:45:40;9.93;;;4.85;;
63201;SDS011;49296;48.188;11.566;2023-02-22T03:48:10;8.77;;;4.70;;
63201;SDS011;49296;48.188;11.566;2023-02-22T03:50:45;8.35;;;4.38;;
63201;SDS011;49296;48.188;11.566;2023-02-22T03:53:15;8.73;;;5.10;;
63201;SDS011;49296;48.188;11.566;2023-02-22T03:55:42;9.90;;;5.95;;
63201;SDS011;49296;48.188;11.566;2023-02-22T03:58:09;12.80;;;5.93;;
63201;SDS011;49296;48.188;11.566;2023-02-22T04:00:38;11.13;;;6.28;;
63201;SDS011;49296;48.188;11.566;2023-02-22T04:03:08;11.77;;;6.90;;
63201;SDS011;49296;48.188;11.566;2023-02-22T04:05:35;11.48;;;6.38;;
63201;SDS011;49296;48.188;11.566;2023-02-22T04:08:03;10.25;;;6.63;;
63201;SDS011;49296;48.188;11.566;2023-02-22T04:10:31;10.75;;;6.40;;
63201;SDS011;49296;48.188;11.566;2023-02-22T04:12:58;13.43;;;6.85;;
63201;SDS011;49296;48.188;11.566;2023-02-22T04:15:25;13.98;;;7.15;;
63201;SDS011;49296;48.188;11.566;2023-02-22T04:17:51;14.45;;;7.18;;
63201;SDS011;49296;48.188;11.566;2023-02-22T04:20:19;12.90;;;7.85;;
63201;SDS011;49296;48.188;11.566;2023-02-22T04:22:49;15.65;;;8.10;;
63201;SDS011;49296;48.188;11.566;2023-02-22T04:25:17;14.27;;;8.20;;
63201;SDS011;49296;48.188;11.566;2023-02-22T04:27:44;13.50;;;7.70;;
63201;SDS011;49296;48.188;11.566;2023-02-22T04:30:11;13.40;;;8.75;;
63201;SDS011;49296;48.188;11.566;2023-02-22T04:32:38;14.80;;;7.80;;
63201;SDS011;49296;48.188;11.566;2023-02-22T04:35:05;16.42;;;8.27;;
63201;SDS011;49296;48.188;11.566;2023-02-22T04:37:32;12.68;;;7.88;;
63201;SDS011;49296;48.188;11.566;2023-02-22T04:39:59;15.43;;;7.95;;
63201;SDS011;49296;48.188;11.566;2023-02-22T04:42:27;15.90;;;9.27;;
63201;SDS011;49296;48.188;11.566;2023-02-22T04:44:54;15.40;;;9.68;;
63201;SDS011;49296;48.188;11.566;2023-02-22T04:47:20;15.80;;;8.95;;
63201;SDS011;49296;48.188;11.566;2023-02-22T04:49:47;14.70;;;9.07;;
63201;SDS011;49296;48.188;11.566;2023-02-22T04:52:14;16.48;;;9.07;;
63201;SDS011;49296;48.188;11.566;2023-02-22T04:54:41;16.05;;;10.50;;
63201;SDS011;49296;48.188;11.566;2023-02-22T04:57:07;15.23;;;9.15;;
63201;SDS011;49296;48.188;11.566;2023-02-22T04:59:35;16.65;;;9.20;;
63201;SDS011;49296;48.188;11.566;2023-02-22T05:02:02;16.20;;;9.02;;
63201;SDS011;49296;48.188;11.566;2023-02-22T05:04:29;16.90;;;9.52;;
63201;SDS011;49296;48.188;11.566;2023-02-22T05:06:55;14.60;;;9.43;;
63201;SDS011;49296;48.188;11.566;2023-02-22T05:09:22;15.77;;;9.52;;
63201;SDS011;49296;48.188;11.566;2023-02-22T05:11:49;13.23;;;9.13;;
63201;SDS011;49296;48.188;11.566;2023-02-22T05:14:15;16.25;;;9.18;;
63201;SDS011;49296;48.188;11.566;2023-02-22T05:16:43;14.77;;;8.60;;
63201;SDS011;49296;48.188;11.566;2023-02-22T05:19:10;14.25;;;8.45;;
63201;SDS011;49296;48.188;11.566;2023-02-22T05:21:37;14.60;;;8.52;;
63201;SDS011;49296;48.188;11.566;2023-02-22T05:24:04;17.63;;;9.10;;
63201;SDS011;49296;48.188;11.566;2023-02-22T05:26:31;14.02;;;8.93;;
63201;SDS011;49296;48.188;11.566;2023-02-22T05:28:58;14.15;;;8.85;;
63201;SDS011;49296;48.188;11.566;2023-02-22T05:31:25;14.88;;;8.88;;
63201;SDS011;49296;48.188;11.566;2023-02-22T05:33:53;15.70;;;8.90;;
63201;SDS011;49296;48.188;11.566;2023-02-22T05:36:20;14.15;;;9.05;;
63201;SDS011;49296;48.188;11.566;2023-02-22T05:38:46;15.80;;;9.15;;
63201;SDS011;49296;48.188;11.566;2023-02-22T05:41:13;14.20;;;8.77;;
63201;SDS011;49296;48.188;11.566;2023-02-22T05:43:40;17.67;;;9.15;;
63201;SDS011;49296;48.188;11.566;2023-02-22T05:46:07;15.13;;;8.95;;
63201;SDS011;49296;48.188;11.566;2023-02-22T05:48:33;16.98;;;9.02;;
63201;SDS011;49296;48.188;11.566;2023-02-22T05:51:02;17.83;;;9.30;;
63201;SDS011;49296;48.188;11.566;2023-02-22T05:53:28;16.98;;;10.30;;
63201;SDS011;49296;48.188;11.566;2023-02-22T05:55:55;14.15;;;8.30;;
63201;SDS011;49296;48.188;11.566;2023-02-22T05:58:22;20.27;;;10.43;;
63201;SDS011;49296;48.188;11.566;2023-02-22T06:00:48;15.95;;;9.50;;
63201;SDS011;49296;48.188;11.566;2023-02-22T06:03:15;19.48;;;10.18;;
63201;SDS011;49296;48.188;11.566;2023-02-22T06:05:42;18.55;;;10.00;;
63201;SDS011;49296;48.188;11.566;2023-02-22T06:08:10;16.80;;;9.93;;
63201;SDS011;49296;48.188;11.566;2023-02-22T06:10:36;16.10;;;9.32;;
63201;SDS011;49296;48.188;11.566;2023-02-22T06:13:03;13.30;;;8.38;;
63201;SDS011;49296;48.188;11.566;2023-02-22T06:15:31;15.25;;;8.52;;
63201;SDS011;49296;48.188;11.566;2023-02-22T06:17:58;18.42;;;9.15;;
63201;SDS011;49296;48.188;11.566;2023-02-22T06:20:26;22.02;;;10.30;;
63201;SDS011;49296;48.188;11.566;2023-02-22T06:22:54;20.92;;;10.30;;
63201;SDS011;49296;48.188;11.566;2023-02-22T06:25:24;18.25;;;8.48;;
63201;SDS011;49296;48.188;11.566;2023-02-22T06:27:52;17.20;;;8.88;;
63201;SDS011;49296;48.188;11.566;2023-02-22T06:30:19;18.88;;;9.35;;
63201;SDS011;49296;48.188;11.566;2023-02-22T06:32:47;21.52;;;9.60;;
63201;SDS011;49296;48.188;11.566;2023-02-22T06:35:15;18.50;;;9.45;;
63201;SDS011;49296;48.188;11.566;2023-02-22T06:37:42;19.20;;;8.93;;
63201;SDS011;49296;48.188;11.566;2023-02-22T06:40:09;17.98;;;9.23;;
63201;SDS011;49296;48.188;11.566;2023-02-22T06:42:38;16.60;;;8.40;;
63201;SDS011;49296;48.188;11.566;2023-02-22T06:45:05;17.88;;;8.60;;
63201;SDS011;49296;48.188;11.566;2023-02-22T06:47:36;17.80;;;7.80;;
63201;SDS011;49296;48.188;11.566;2023-02-22T06:52:30;26.65;;;9.88;;
63201;SDS011;49296;48.188;11.566;2023-02-22T06:54:57;23.65;;;9.48;;
63201;SDS011;49296;48.188;11.566;2023-02-22T06:57:25;19.08;;;8.57;;
63201;SDS011;49296;48.188;11.566;2023-02-22T06:59:53;17.02;;;7.95;;
63201;SDS011;49296;48.188;11.566;2023-02-22T07:02:20;15.60;;;7.95;;
63201;SDS011;49296;48.188;11.566;2023-02-22T07:04:46;14.13;;;8.68;;
63201;SDS011;49296;48.188;11.566;2023-02-22T07:07:13;14.95;;;7.47;;
63201;SDS011;49296;48.188;11.566;2023-02-22T07:09:41;13.80;;;7.22;;
63201;SDS011;49296;48.188;11.566;2023-02-22T07:12:11;13.63;;;7.07;;
63201;SDS011;49296;48.188;11.566;2023-02-22T07:14:38;15.57;;;7.13;;
63201;SDS011;49296;48.188;11.566;2023-02-22T07:17:06;12.07;;;6.25;;
63201;SDS011;49296;48.188;11.566;2023-02-22T07:19:33;14.98;;;6.55;;
63201;SDS011;49296;48.188;11.566;2023-02-22T07:21:59;13.23;;;6.45;;
63201;SDS011;49296;48.188;11.566;2023-02-22T07:24:26;10.98;;;5.63;;
63201;SDS011;49296;48.188;11.566;2023-02-22T07:26:54;13.32;;;6.57;;
63201;SDS011;49296;48.188;11.566;2023-02-22T07:29:20;16.20;;;6.90;;
63201;SDS011;49296;48.188;11.566;2023-02-22T07:31:47;15.10;;;7.03;;
63201;SDS011;49296;48.188;11.566;2023-02-22T07:34:15;12.65;;;6.53;;
63201;SDS011;49296;48.188;11.566;2023-02-22T07:36:42;14.93;;;6.70;;
63201;SDS011;49296;48.188;11.566;2023-02-22T07:39:08;14.48;;;6.55;;
63201;SDS011;49296;48.188;11.566;2023-02-22T07:41:35;10.32;;;6.35;;
63201;SDS011;49296;48.188;11.566;2023-02-22T07:44:02;16.08;;;7.55;;
63201;SDS011;49296;48.188;11.566;2023-02-22T07:46:28;11.68;;;5.80;;
63201;SDS011;49296;48.188;11.566;2023-02-22T07:48:55;14.43;;;6.47;;
63201;SDS011;49296;48.188;11.566;2023-02-22T07:51:23;12.40;;;6.25;;
63201;SDS011;49296;48.188;11.566;2023-02-22T07:53:51;14.57;;;6.28;;
63201;SDS011;49296;48.188;11.566;2023-02-22T07:56:17;13.70;;;5.97;;
63201;SDS011;49296;48.188;11.566;2023-02-22T07:58:44;14.23;;;5.47;;
63201;SDS011;49296;48.188;11.566;2023-02-22T08:01:11;12.52;;;5.32;;
63201;SDS011;49296;48.188;11.566;2023-02-22T08:03:38;14.80;;;5.50;;
63201;SDS011;49296;48.188;11.566;2023-02-22T08:06:05;10.38;;;5.70;;
63201;SDS011;49296;48.188;11.566;2023-02-22T08:08:34;8.27;;;4.88;;
63201;SDS011;49296;48.188;11.566;2023-02-22T08:11:01;10.98;;;5.57;;
63201;SDS011;49296;48.188;11.566;2023-02-22T08:13:28;11.90;;;6.93;;
63201;SDS011;49296;48.188;11.566;2023-02-22T08:15:55;7.97;;;5.20;;
63201;SDS011;49296;48.188;11.566;2023-02-22T08:18:22;11.48;;;5.13;;
63201;SDS011;49296;48.188;11.566;2023-02-22T08:20:50;10.80;;;5.93;;
63201;SDS011;49296;48.188;11.566;2023-02-22T08:23:18;12.63;;;6.00;;
63201;SDS011;49296;48.188;11.566;2023-02-22T08:28:17;14.60;;;5.85;;
63201;SDS011;49296;48.188;11.566;2023-02-22T08:30:47;16.80;;;5.95;;
63201;SDS011;49296;48.188;11.566;2023-02-22T08:33:15;9.95;;;4.70;;
63201;SDS011;49296;48.188;11.566;2023-02-22T08:35:44;8.93;;;4.80;;
63201;SDS011;49296;48.188;11.566;2023-02-22T08:38:17;11.80;;;5.25;;
63201;SDS011;49296;48.188;11.566;2023-02-22T08:40:46;9.35;;;4.50;;
63201;SDS011;49296;48.188;11.566;2023-02-22T08:43:15;11.57;;;4.85;;
63201;SDS011;49296;48.188;11.566;2023-02-22T08:45:43;10.48;;;4.45;;
63201;SDS011;49296;48.188;11.566;2023-02-22T08:48:10;7.43;;;3.25;;
63201;SDS011;49296;48.188;11.566;2023-02-22T08:50:38;8.70;;;4.20;;
63201;SDS011;49296;48.188;11.566;2023-02-22T08:53:06;9.73;;;4.05;;
63201;SDS011;49296;48.188;11.566;2023-02-22T08:55:34;10.38;;;3.28;;
63201;SDS011;49296;48.188;11.566;2023-02-22T08:58:03;9.88;;;4.32;;
63201;SDS011;49296;48.188;11.566;2023-02-22T09:00:34;9.27;;;3.65;;
63201;SDS011;49296;48.188;11.566;2023-02-22T09:03:03;8.32;;;3.33;;
63201;SDS011;49296;48.188;11.566;2023-02-22T09:05:30;8.27;;;4.22;;
63201;SDS011;49296;48.188;11.566;2023-02-22T09:07:58;6.97;;;3.50;;
63201;SDS011;49296;48.188;11.566;2023-02-22T09:10:26;6.50;;;3.33;;
63201;SDS011;49296;48.188;11.566;2023-02-22T09:12:54;10.50;;;3.58;;
63201;SDS011;49296;48.188;11.566;2023-02-22T09:15:22;8.68;;;3.90;;
63201;SDS011;49296;48.188;11.566;2023-02-22T09:17:51;9.50;;;3.40;;
63201;SDS011;49296;48.188;11.566;2023-02-22T09:20:18;10.18;;;3.33;;
63201;SDS011;49296;48.188;11.566;2023-02-22T09:22:46;8.38;;;3.75;;
63201;SDS011;49296;48.188;11.566;2023-02-22T09:25:14;7.15;;;3.03;;
63201;SDS011;49296;48.188;11.566;2023-02-22T09:27:41;7.90;;;3.80;;
63201;SDS011;49296;48.188;11.566;2023-02-22T09:30:11;7.00;;;3.00;;
63201;SDS011;49296;48.188;11.566;2023-02-22T09:32:42;8.05;;;3.20;;
63201;SDS011;49296;48.188;11.566;2023-02-22T09:35:10;7.07;;;2.90;;
63201;SDS011;49296;48.188;11.566;2023-02-22T09:37:37;6.47;;;2.80;;
63201;SDS011;49296;48.188;11.566;2023-02-22T09:40:04;6.65;;;2.97;;
63201;SDS011;49296;48.188;11.566;2023-02-22T09:42:34;5.15;;;2.80;;
63201;SDS011;49296;48.188;11.566;2023-02-22T09:45:13;5.25;;;2.50;;
63201;SDS011;49296;48.188;11.566;2023-02-22T09:47:47;6.18;;;2.50;;
63201;SDS011;49296;48.188;11.566;2023-02-22T09:50:19;6.40;;;2.70;;
63201;SDS011;49296;48.188;11.566;2023-02-22T09:52:51;8.18;;;4.15;;
63201;SDS011;49296;48.188;11.566;2023-02-22T09:55:25;7.35;;;2.75;;
63201;SDS011;49296;48.188;11.566;2023-02-22T09:57:58;7.07;;;2.80;;
63201;SDS011;49296;48.188;11.566;2023-02-22T10:00:28;9.23;;;3.22;;
63201;SDS011;49296;48.188;11.566;2023-02-22T10:03:00;8.07;;;2.88;;
63201;SDS011;49296;48.188;11.566;2023-02-22T10:05:40;6.25;;;2.65;;
63201;SDS011;49296;48.188;11.566;2023-02-22T10:08:09;6.65;;;3.45;;
63201;SDS011;49296;48.188;11.566;2023-02-22T10:10:38;6.13;;;2.83;;
63201;SDS011;49296;48.188;11.566;2023-02-22T10:13:11;7.15;;;2.85;;
63201;SDS011;49296;48.188;11.566;2023-02-22T10:15:48;4.70;;;2.50;;
63201;SDS011;49296;48.188;11.566;2023-02-22T10:24:32;8.73;;;3.50;;
63201;SDS011;49296;48.188;11.566;2023-02-22T10:27:08;6.95;;;3.05;;
63201;SDS011;49296;48.188;11.566;2023-02-22T10:29:42;9.77;;;2.80;;
63201;SDS011;49296;48.188;11.566;2023-02-22T10:32:14;7.32;;;2.75;;
63201;SDS011;49296;48.188;11.566;2023-02-22T10:34:46;6.45;;;2.47;;
63201;SDS011;49296;48.188;11.566;2023-02-22T10:37:20;4.50;;;2.55;;
63201;SDS011;49296;48.188;11.566;2023-02-22T10:39:52;6.22;;;2.10;;
63201;SDS011;49296;48.188;11.566;2023-02-22T10:42:24;7.05;;;2.20;;
63201;SDS011;49296;48.188;11.566;2023-02-22T10:44:52;6.55;;;2.28;;
63201;SDS011;49296;48.188;11.566;2023-02-22T10:47:19;5.43;;;2.42;;
63201;SDS011;49296;48.188;11.566;2023-02-22T10:49:47;5.82;;;2.65;;
63201;SDS011;49296;48.188;11.566;2023-02-22T10:52:21;5.45;;;2.22;;
63201;SDS011;49296;48.188;11.566;2023-02-22T10:54:53;9.45;;;2.30;;
63201;SDS011;49296;48.188;11.566;2023-02-22T10:57:21;5.50;;;2.28;;
63201;SDS011;49296;48.188;11.566;2023-02-22T10:59:51;5.65;;;2.85;;
63201;SDS011;49296;48.188;11.566;2023-02-22T11:02:22;5.47;;;2.57;;
63201;SDS011;49296;48.188;11.566;2023-02-22T11:04:53;5.22;;;2.42;;
63201;SDS011;49296;48.188;11.566;2023-02-22T11:07:23;5.45;;;2.17;;
63201;SDS011;49296;48.188;11.566;2023-02-22T11:09:53;6.60;;;2.42;;
63201;SDS011;49296;48.188;11.566;2023-02-22T11:12:25;6.78;;;2.45;;
63201;SDS011;49296;48.188;11.566;2023-02-22T11:14:55;6.25;;;2.60;;
63201;SDS011;49296;48.188;11.566;2023-02-22T11:17:29;7.30;;;2.78;;
63201;SDS011;49296;48.188;11.566;2023-02-22T11:19:57;6.05;;;2.42;;
63201;SDS011;49296;48.188;11.566;2023-02-22T11:22:27;5.75;;;2.63;;
63201;SDS011;49296;48.188;11.566;2023-02-22T11:24:58;5.32;;;2.13;;
63201;SDS011;49296;48.188;11.566;2023-02-22T11:27:32;5.32;;;2.15;;
63201;SDS011;49296;48.188;11.566;2023-02-22T11:30:10;6.75;;;2.85;;
63201;SDS011;49296;48.188;11.566;2023-02-22T11:32:52;6.88;;;2.28;;
63201;SDS011;49296;48.188;11.566;2023-02-22T11:35:32;9.20;;;2.65;;
63201;SDS011;49296;48.188;11.566;2023-02-22T11:38:18;5.38;;;2.38;;
63201;SDS011;49296;48.188;11.566;2023-02-22T11:40:46;6.40;;;2.40;;
63201;SDS011;49296;48.188;11.566;2023-02-22T11:43:29;4.88;;;2.35;;
63201;SDS011;49296;48.188;11.566;2023-02-22T11:45:57;8.95;;;2.58;;
63201;SDS011;49296;48.188;11.566;2023-02-22T11:48:27;5.60;;;2.28;;
63201;SDS011;49296;48.188;11.566;2023-02-22T11:51:08;7.30;;;2.63;;
63201;SDS011;49296;48.188;11.566;2023-02-22T11:53:45;6.47;;;2.78;;
63201;SDS011;49296;48.188;11.566;2023-02-22T11:56:25;5.85;;;2.10;;
63201;SDS011;49296;48.188;11.566;2023-02-22T11:58:58;7.13;;;2.70;;
63201;SDS011;49296;48.188;11.566;2023-02-22T12:01:35;8.45;;;2.30;;
63201;SDS011;49296;48.188;11.566;2023-02-22T12:07:17;5.70;;;2.22;;
63201;SDS011;49296;48.188;11.566;2023-02-22T12:10:03;5.10;;;1.90;;
63201;SDS011;49296;48.188;11.566;2023-02-22T12:12:41;6.35;;;2.17;;
63201;SDS011;49296;48.188;11.566;2023-02-22T12:15:22;6.60;;;1.80;;
63201;SDS011;49296;48.188;11.566;2023-02-22T12:17:55;5.60;;;2.00;;
63201;SDS011;49296;48.188;11.566;2023-02-22T12:20:30;9.10;;;4.18;;
63201;SDS011;49296;48.188;11.566;2023-02-22T12:23:04;3.35;;;1.70;;
63201;SDS011;49296;48.188;11.566;2023-02-22T12:25:43;6.40;;;1.90;;
63201;SDS011;49296;48.188;11.566;2023-02-22T12:28:21;5.40;;;1.83;;
63201;SDS011;49296;48.188;11.566;2023-02-22T12:30:55;5.25;;;1.90;;
63201;SDS011;49296;48.188;11.566;2023-02-22T12:33:32;3.10;;;1.40;;
63201;SDS011;49296;48.188;11.566;2023-02-22T12:36:07;4.90;;;1.63;;
63201;SDS011;49296;48.188;11.566;2023-02-22T12:38:41;5.00;;;1.73;;
63201;SDS011;49296;48.188;11.566;2023-02-22T12:41:14;3.97;;;1.75;;
63201;SDS011;49296;48.188;11.566;2023-02-22T12:43:46;3.55;;;1.40;;
63201;SDS011;49296;48.188;11.566;2023-02-22T12:46:18;4.85;;;2.30;;
63201;SDS011;49296;48.188;11.566;2023-02-22T12:48:51;4.53;;;1.70;;
63201;SDS011;49296;48.188;11.566;2023-02-22T12:51:24;6.13;;;1.98;;
63201;SDS011;49296;48.188;11.566;2023-02-22T12:53:58;4.55;;;1.80;;
63201;SDS011;49296;48.188;11.566;2023-02-22T12:56:35;4.13;;;1.40;;
63201;SDS011;49296;48.188;11.566;2023-02-22T12:59:07;5.40;;;2.00;;
63201;SDS011;49296;48.188;11.566;2023-02-22T13:01:42;5.57;;;1.70;;
63201;SDS011;49296;48.188;11.566;2023-02-22T13:04:11;4.95;;;1.35;;
63201;SDS011;49296;48.188;11.566;2023-02-22T13:06:43;3.42;;;1.10;;
63201;SDS011;49296;48.188;11.566;2023-02-22T13:09:24;3.17;;;1.20;;
63201;SDS011;49296;48.188;11.566;2023-02-22T13:12:06;4.50;;;1.20;;
63201;SDS011;49296;48.188;11.566;2023-02-22T13:14:39;4.65;;;1.45;;
63201;SDS011;49296;48.188;11.566;2023-02-22T13:17:16;2.72;;;1.20;;
63201;SDS011;49296;48.188;11.566;2023-02-22T13:19:51;3.28;;;1.70;;
63201;SDS011;49296;48.188;11.566;2023-02-22T13:22:25;4.88;;;2.33;;
63201;SDS011;49296;48.188;11.566;2023-02-22T13:25:00;3.58;;;1.13;;
63201;SDS011;49296;48.188;11.566;2023-02-22T13:27:34;3.20;;;1.17;;
63201;SDS011;49296;48.188;11.566;2023-02-22T13:30:05;3.92;;;1.75;;
63201;SDS011;49296;48.188;11.566;2023-02-22T13:32:47;2.70;;;1.02;;
63201;SDS011;49296;48.188;11.566;2023-02-22T13:35:30;3.72;;;1.25;;
63201;SDS011;49296;48.188;11.566;2023-02-22T13:38:22;4.32;;;1.50;;
63201;SDS011;49296;48.188;11.566;2023-02-22T13:47:40;4.75;;;1.10;;
63201;SDS011;49296;48.188;11.566;2023-02-22T13:53:17;2.85;;;1.20;;
63201;SDS011;49296;48.188;11.566;2023-02-22T13:55:52;1.83;;;0.90;;
63201;SDS011;49296;48.188;11.566;2023-02-22T13:58:21;4.03;;;1.20;;
63201;SDS011;49296;48.188;11.566;2023-02-22T14:00:50;4.90;;;2.03;;
63201;SDS011;49296;48.188;11.566;2023-02-22T14:03:33;5.18;;;1.85;;
63201;SDS011;49296;48.188;11.566;2023-02-22T14:06:04;5.93;;;1.83;;
63201;SDS011;49296;48.188;11.566;2023-02-22T14:08:45;8.55;;;3.13;;
63201;SDS011;49296;48.188;11.566;2023-02-22T14:14:21;4.72;;;2.13;;
63201;SDS011;49296;48.188;11.566;2023-02-22T14:20:03;6.43;;;2.20;;
63201;SDS011;49296;48.188;11.566;2023-02-22T14:22:44;5.45;;;1.70;;
63201;SDS011;49296;48.188;11.566;2023-02-22T14:28:01;4.40;;;1.60;;
63201;SDS011;49296;48.188;11.566;2023-02-22T14:30:30;3.40;;;1.50;;
63201;SDS011;49296;48.188;11.566;2023-02-22T14:32:59;4.20;;;1.50;;
63201;SDS011;49296;48.188;11.566;2023-02-22T14:35:29;2.85;;;1.50;;
63201;SDS011;49296;48.188;11.566;2023-02-22T14:38:02;6.95;;;1.92;;
63201;SDS011;49296;48.188;11.566;2023-02-22T14:40:32;5.75;;;1.60;;
63201;SDS011;49296;48.188;11.566;2023-02-22T14:43:02;3.42;;;1.60;;
63201;SDS011;49296;48.188;11.566;2023-02-22T14:45:31;6.00;;;2.83;;
63201;SDS011;49296;48.188;11.566;2023-02-22T14:48:00;3.65;;;1.73;;
63201;SDS011;49296;48.188;11.566;2023-02-22T14:50:42;3.03;;;1.20;;
63201;SDS011;49296;48.188;11.566;2023-02-22T14:53:15;2.88;;;1.20;;
63201;SDS011;49296;48.188;11.566;2023-02-22T14:55:51;3.88;;;1.50;;
63201;SDS011;49296;48.188;11.566;2023-02-22T14:58:22;3.30;;;1.70;;
63201;SDS011;49296;48.188;11.566;2023-02-22T15:00:54;4.60;;;1.80;;
63201;SDS011;49296;48.188;11.566;2023-02-22T15:03:25;3.45;;;1.40;;
63201;SDS011;49296;48.188;11.566;2023-02-22T15:06:09;5.95;;;1.92;;
63201;SDS011;49296;48.188;11.566;2023-02-22T15:08:41;9.35;;;4.03;;
63201;SDS011;49296;48.188;11.566;2023-02-22T15:11:18;7.72;;;3.80;;
63201;SDS011;49296;48.188;11.566;2023-02-22T15:13:48;7.97;;;3.65;;
63201;SDS011;49296;48.188;11.566;2023-02-22T15:16:16;7.65;;;5.03;;
63201;SDS011;49296;48.188;11.566;2023-02-22T15:18:45;6.88;;;3.83;;
63201;SDS011;49296;48.188;11.566;2023-02-22T15:21:18;6.55;;;3.88;;